sensor_id;sensor_type;location;lat;lon;timestamp;P1;durP1;ratioP1;P2;durP2;ratioP2
28724;SDS011;43472;48.980;9.646;2024-01-30T00:00:01;10.13;;;5.65;;
28724;SDS011;43472;48.980;9.646;2024-01-30T00:05:03;11.20;;;5.57;;
28724;SDS011;43472;48.980;9.646;2024-01-30T00:10:05;9.95;;;5.32;;
28724;SDS011;43472;48.980;9.646;2024-01-30T00:15:07;9.07;;;5.43;;
28724;SDS011;43472;48.980;9.646;2024-01-30T00:20:11;7.75;;;4.80;;
28724;SDS011;43472;48.980;9.646;2024-01-30T00:25:13;9.50;;;4.70;;
28724;SDS011;43472;48.980;9.646;2024-01-30T00:30:16;11.93;;;4.68;;
28724;SDS011;43472;48.980;9.646;2024-01-30T00:35:18;9.80;;;4.43;;
28724;SDS011;43472;48.980;9.646;2024-01-30T00:40:20;8.00;;;4.40;;
28724;SDS011;43472;48.980;9.646;2024-01-30T00:45:22;10.82;;;5.57;;
28724;SDS011;43472;48.980;9.646;2024-01-30T00:50:25;11.82;;;5.57;;
28724;SDS011;43472;48.980;9.646;2024-01-30T00:55:27;9.77;;;5.88;;
28724;SDS011;43472;48.980;9.646;2024-01-30T01:00:29;7.60;;;4.32;;
28724;SDS011;43472;48.980;9.646;2024-01-30T01:05:33;11.45;;;6.55;;
28724;SDS011;43472;48.980;9.646;2024-01-30T01:10:35;12.98;;;4.70;;
28724;SDS011;43472;48.980;9.646;2024-01-30T01:15:37;11.93;;;6.28;;
28724;SDS011;43472;48.980;9.646;2024-01-30T01:20:40;8.43;;;5.15;;
28724;SDS011;43472;48.980;9.646;2024-01-30T01:25:42;10.10;;;4.70;;
28724;SDS011;43472;48.980;9.646;2024-01-30T01:30:43;8.80;;;4.97;;
28724;SDS011;43472;48.980;9.646;2024-01-30T01:35:45;8.82;;;4.80;;
28724;SDS011;43472;48.980;9.646;2024-01-30T01:40:48;7.47;;;4.82;;
28724;SDS011;43472;48.980;9.646;2024-01-30T01:45:49;7.72;;;4.63;;
28724;SDS011;43472;48.980;9.646;2024-01-30T01:50:52;7.55;;;5.22;;
28724;SDS011;43472;48.980;9.646;2024-01-30T01:55:54;7.47;;;4.40;;
28724;SDS011;43472;48.980;9.646;2024-01-30T02:00:57;6.57;;;4.30;;
28724;SDS011;43472;48.980;9.646;2024-01-30T02:06:03;7.50;;;4.85;;
28724;SDS011;43472;48.980;9.646;2024-01-30T02:11:06;10.55;;;4.85;;
28724;SDS011;43472;48.980;9.646;2024-01-30T02:16:08;11.77;;;5.72;;
28724;SDS011;43472;48.980;9.646;2024-01-30T02:21:10;8.05;;;5.00;;
28724;SDS011;43472;48.980;9.646;2024-01-30T02:26:13;9.38;;;5.10;;
28724;SDS011;43472;48.980;9.646;2024-01-30T02:31:15;9.88;;;4.60;;
28724;SDS011;43472;48.980;9.646;2024-01-30T02:36:17;8.48;;;4.70;;
28724;SDS011;43472;48.980;9.646;2024-01-30T02:41:19;8.55;;;4.68;;
28724;SDS011;43472;48.980;9.646;2024-01-30T02:46:21;6.95;;;4.38;;
28724;SDS011;43472;48.980;9.646;2024-01-30T02:51:25;11.98;;;5.50;;
28724;SDS011;43472;48.980;9.646;2024-01-30T02:56:27;6.55;;;4.57;;
28724;SDS011;43472;48.980;9.646;2024-01-30T03:01:29;9.05;;;5.20;;
28724;SDS011;43472;48.980;9.646;2024-01-30T03:06:33;8.13;;;5.22;;
28724;SDS011;43472;48.980;9.646;2024-01-30T03:11:35;8.23;;;4.90;;
28724;SDS011;43472;48.980;9.646;2024-01-30T03:16:37;12.98;;;5.03;;
28724;SDS011;43472;48.980;9.646;2024-01-30T03:21:39;10.40;;;5.88;;
28724;SDS011;43472;48.980;9.646;2024-01-30T03:26:41;9.82;;;5.70;;
28724;SDS011;43472;48.980;9.646;2024-01-30T03:31:43;14.43;;;6.40;;
28724;SDS011;43472;48.980;9.646;2024-01-30T03:36:46;10.77;;;5.20;;
28724;SDS011;43472;48.980;9.646;2024-01-30T03:41:49;9.77;;;5.55;;
28724;SDS011;43472;48.980;9.646;2024-01-30T03:46:51;10.88;;;5.55;;
28724;SDS011;43472;48.980;9.646;2024-01-30T03:51:53;9.07;;;5.50;;
28724;SDS011;43472;48.980;9.646;2024-01-30T03:56:55;9.52;;;4.95;;
28724;SDS011;43472;48.980;9.646;2024-01-30T04:01:57;7.00;;;4.53;;
28724;SDS011;43472;48.980;9.646;2024-01-30T04:06:59;7.40;;;4.78;;
28724;SDS011;43472;48.980;9.646;2024-01-30T04:12:01;7.85;;;4.70;;
28724;SDS011;43472;48.980;9.646;2024-01-30T04:17:04;5.55;;;3.95;;
28724;SDS011;43472;48.980;9.646;2024-01-30T04:22:06;6.43;;;4.13;;
28724;SDS011;43472;48.980;9.646;2024-01-30T04:27:08;6.18;;;4.38;;
28724;SDS011;43472;48.980;9.646;2024-01-30T04:32:10;8.07;;;4.30;;
28724;SDS011;43472;48.980;9.646;2024-01-30T04:37:12;6.80;;;4.28;;
28724;SDS011;43472;48.980;9.646;2024-01-30T04:42:15;9.35;;;5.20;;
28724;SDS011;43472;48.980;9.646;2024-01-30T04:47:17;8.95;;;5.05;;
28724;SDS011;43472;48.980;9.646;2024-01-30T04:52:20;10.68;;;5.15;;
28724;SDS011;43472;48.980;9.646;2024-01-30T04:57:22;9.57;;;4.30;;
28724;SDS011;43472;48.980;9.646;2024-01-30T05:02:24;6.97;;;4.68;;
28724;SDS011;43472;48.980;9.646;2024-01-30T05:07:26;9.00;;;4.85;;
28724;SDS011;43472;48.980;9.646;2024-01-30T05:12:30;6.70;;;4.30;;
28724;SDS011;43472;48.980;9.646;2024-01-30T05:17:32;9.32;;;4.63;;
28724;SDS011;43472;48.980;9.646;2024-01-30T05:22:34;9.05;;;5.10;;
28724;SDS011;43472;48.980;9.646;2024-01-30T05:27:37;9.45;;;4.70;;
28724;SDS011;43472;48.980;9.646;2024-01-30T05:32:40;5.70;;;3.83;;
28724;SDS011;43472;48.980;9.646;2024-01-30T05:37:42;6.60;;;3.88;;
28724;SDS011;43472;48.980;9.646;2024-01-30T05:42:45;8.65;;;4.28;;
28724;SDS011;43472;48.980;9.646;2024-01-30T05:47:49;9.05;;;5.50;;
28724;SDS011;43472;48.980;9.646;2024-01-30T05:52:51;7.72;;;4.40;;
28724;SDS011;43472;48.980;9.646;2024-01-30T05:57:53;6.63;;;4.20;;
28724;SDS011;43472;48.980;9.646;2024-01-30T06:02:57;12.40;;;4.93;;
28724;SDS011;43472;48.980;9.646;2024-01-30T06:07:59;8.57;;;5.05;;
28724;SDS011;43472;48.980;9.646;2024-01-30T06:13:03;6.85;;;5.13;;
28724;SDS011;43472;48.980;9.646;2024-01-30T06:18:05;9.93;;;4.95;;
28724;SDS011;43472;48.980;9.646;2024-01-30T06:23:07;7.75;;;4.60;;
28724;SDS011;43472;48.980;9.646;2024-01-30T06:28:09;9.55;;;6.03;;
28724;SDS011;43472;48.980;9.646;2024-01-30T06:33:13;20.00;;;8.70;;
28724;SDS011;43472;48.980;9.646;2024-01-30T06:38:16;19.00;;;7.57;;
28724;SDS011;43472;48.980;9.646;2024-01-30T06:43:18;12.93;;;7.07;;
28724;SDS011;43472;48.980;9.646;2024-01-30T06:48:20;9.18;;;5.50;;
28724;SDS011;43472;48.980;9.646;2024-01-30T06:53:22;11.82;;;6.47;;
28724;SDS011;43472;48.980;9.646;2024-01-30T06:58:24;9.13;;;5.80;;
28724;SDS011;43472;48.980;9.646;2024-01-30T07:03:29;19.13;;;10.18;;
28724;SDS011;43472;48.980;9.646;2024-01-30T07:08:35;8.88;;;6.13;;
28724;SDS011;43472;48.980;9.646;2024-01-30T07:13:40;12.82;;;6.10;;
28724;SDS011;43472;48.980;9.646;2024-01-30T07:18:43;11.55;;;5.63;;
28724;SDS011;43472;48.980;9.646;2024-01-30T07:23:46;9.30;;;5.95;;
28724;SDS011;43472;48.980;9.646;2024-01-30T07:28:48;11.20;;;5.72;;
28724;SDS011;43472;48.980;9.646;2024-01-30T07:33:52;10.32;;;7.03;;
28724;SDS011;43472;48.980;9.646;2024-01-30T07:38:56;11.82;;;7.57;;
28724;SDS011;43472;48.980;9.646;2024-01-30T07:43:58;13.43;;;7.45;;
28724;SDS011;43472;48.980;9.646;2024-01-30T07:49:00;17.60;;;9.40;;
28724;SDS011;43472;48.980;9.646;2024-01-30T07:54:03;26.85;;;9.25;;
28724;SDS011;43472;48.980;9.646;2024-01-30T07:59:05;16.15;;;10.35;;
28724;SDS011;43472;48.980;9.646;2024-01-30T08:04:12;23.05;;;12.20;;
28724;SDS011;43472;48.980;9.646;2024-01-30T08:09:14;16.27;;;9.88;;
28724;SDS011;43472;48.980;9.646;2024-01-30T08:14:16;22.00;;;11.38;;
28724;SDS011;43472;48.980;9.646;2024-01-30T08:19:18;22.63;;;12.85;;
28724;SDS011;43472;48.980;9.646;2024-01-30T08:24:21;18.77;;;11.40;;
28724;SDS011;43472;48.980;9.646;2024-01-30T08:29:23;22.17;;;11.27;;
28724;SDS011;43472;48.980;9.646;2024-01-30T08:34:25;19.80;;;10.50;;
28724;SDS011;43472;48.980;9.646;2024-01-30T08:39:27;31.33;;;13.25;;
28724;SDS011;43472;48.980;9.646;2024-01-30T08:44:29;29.75;;;15.85;;
28724;SDS011;43472;48.980;9.646;2024-01-30T08:49:31;40.97;;;21.65;;
28724;SDS011;43472;48.980;9.646;2024-01-30T08:54:33;54.13;;;24.58;;
28724;SDS011;43472;48.980;9.646;2024-01-30T08:59:36;47.33;;;22.20;;
28724;SDS011;43472;48.980;9.646;2024-01-30T09:04:38;45.85;;;21.30;;
28724;SDS011;43472;48.980;9.646;2024-01-30T09:09:41;34.90;;;19.92;;
28724;SDS011;43472;48.980;9.646;2024-01-30T09:14:43;32.33;;;18.90;;
28724;SDS011;43472;48.980;9.646;2024-01-30T09:19:45;30.08;;;16.23;;
28724;SDS011;43472;48.980;9.646;2024-01-30T09:24:48;25.30;;;14.73;;
28724;SDS011;43472;48.980;9.646;2024-01-30T09:29:52;22.83;;;12.30;;
28724;SDS011;43472;48.980;9.646;2024-01-30T09:34:54;21.67;;;12.52;;
28724;SDS011;43472;48.980;9.646;2024-01-30T09:39:56;15.52;;;10.40;;
28724;SDS011;43472;48.980;9.646;2024-01-30T09:44:58;16.85;;;9.43;;
28724;SDS011;43472;48.980;9.646;2024-01-30T09:50:00;16.20;;;10.45;;
28724;SDS011;43472;48.980;9.646;2024-01-30T09:55:04;28.15;;;10.60;;
28724;SDS011;43472;48.980;9.646;2024-01-30T10:00:07;27.67;;;15.65;;
28724;SDS011;43472;48.980;9.646;2024-01-30T10:05:11;52.00;;;25.55;;
28724;SDS011;43472;48.980;9.646;2024-01-30T10:10:18;112.25;;;46.70;;
28724;SDS011;43472;48.980;9.646;2024-01-30T10:15:20;60.92;;;25.17;;
28724;SDS011;43472;48.980;9.646;2024-01-30T10:20:24;121.10;;;44.17;;
28724;SDS011;43472;48.980;9.646;2024-01-30T10:25:27;21.48;;;12.68;;
28724;SDS011;43472;48.980;9.646;2024-01-30T10:30:29;22.50;;;11.73;;
28724;SDS011;43472;48.980;9.646;2024-01-30T10:35:31;12.90;;;9.27;;
28724;SDS011;43472;48.980;9.646;2024-01-30T10:40:35;22.27;;;14.05;;
28724;SDS011;43472;48.980;9.646;2024-01-30T10:45:38;14.43;;;7.93;;
28724;SDS011;43472;48.980;9.646;2024-01-30T10:50:44;11.93;;;8.18;;
28724;SDS011;43472;48.980;9.646;2024-01-30T10:55:57;10.70;;;7.22;;
28724;SDS011;43472;48.980;9.646;2024-01-30T11:01:00;14.23;;;6.70;;
28724;SDS011;43472;48.980;9.646;2024-01-30T11:06:03;10.93;;;7.40;;
28724;SDS011;43472;48.980;9.646;2024-01-30T11:11:08;12.10;;;6.93;;
28724;SDS011;43472;48.980;9.646;2024-01-30T11:16:11;15.52;;;7.18;;
28724;SDS011;43472;48.980;9.646;2024-01-30T11:21:13;12.25;;;6.90;;
28724;SDS011;43472;48.980;9.646;2024-01-30T11:26:15;12.82;;;7.88;;
28724;SDS011;43472;48.980;9.646;2024-01-30T11:31:19;11.57;;;8.52;;
28724;SDS011;43472;48.980;9.646;2024-01-30T11:36:22;12.98;;;8.38;;
28724;SDS011;43472;48.980;9.646;2024-01-30T11:41:28;11.27;;;7.75;;
28724;SDS011;43472;48.980;9.646;2024-01-30T11:46:31;27.45;;;17.40;;
28724;SDS011;43472;48.980;9.646;2024-01-30T11:51:34;35.63;;;18.67;;
28724;SDS011;43472;48.980;9.646;2024-01-30T11:56:37;23.63;;;14.68;;
28724;SDS011;43472;48.980;9.646;2024-01-30T12:01:42;23.95;;;15.77;;
28724;SDS011;43472;48.980;9.646;2024-01-30T12:06:44;31.58;;;15.27;;
28724;SDS011;43472;48.980;9.646;2024-01-30T12:11:47;25.38;;;12.70;;
28724;SDS011;43472;48.980;9.646;2024-01-30T12:16:51;18.88;;;12.85;;
28724;SDS011;43472;48.980;9.646;2024-01-30T12:21:55;19.10;;;11.25;;
28724;SDS011;43472;48.980;9.646;2024-01-30T12:27:00;20.55;;;11.75;;
28724;SDS011;43472;48.980;9.646;2024-01-30T12:32:02;15.38;;;8.60;;
28724;SDS011;43472;48.980;9.646;2024-01-30T12:37:04;19.58;;;8.27;;
28724;SDS011;43472;48.980;9.646;2024-01-30T12:42:08;20.17;;;7.57;;
28724;SDS011;43472;48.980;9.646;2024-01-30T12:47:09;14.00;;;6.55;;
28724;SDS011;43472;48.980;9.646;2024-01-30T12:52:12;15.98;;;6.00;;
28724;SDS011;43472;48.980;9.646;2024-01-30T12:57:16;10.18;;;5.25;;
28724;SDS011;43472;48.980;9.646;2024-01-30T13:02:18;12.65;;;5.22;;
28724;SDS011;43472;48.980;9.646;2024-01-30T13:07:21;23.80;;;6.18;;
28724;SDS011;43472;48.980;9.646;2024-01-30T13:12:24;24.05;;;10.90;;
28724;SDS011;43472;48.980;9.646;2024-01-30T13:17:26;21.73;;;11.90;;
28724;SDS011;43472;48.980;9.646;2024-01-30T13:22:28;12.80;;;5.97;;
28724;SDS011;43472;48.980;9.646;2024-01-30T13:27:31;12.38;;;6.70;;
28724;SDS011;43472;48.980;9.646;2024-01-30T13:32:33;23.20;;;9.95;;
28724;SDS011;43472;48.980;9.646;2024-01-30T13:37:35;15.85;;;8.02;;
28724;SDS011;43472;48.980;9.646;2024-01-30T13:42:38;20.98;;;8.57;;
28724;SDS011;43472;48.980;9.646;2024-01-30T13:47:40;15.27;;;7.50;;
28724;SDS011;43472;48.980;9.646;2024-01-30T13:52:42;13.15;;;6.85;;
28724;SDS011;43472;48.980;9.646;2024-01-30T13:57:47;17.13;;;7.47;;
28724;SDS011;43472;48.980;9.646;2024-01-30T14:02:53;12.60;;;6.05;;
28724;SDS011;43472;48.980;9.646;2024-01-30T14:07:57;14.40;;;6.22;;
28724;SDS011;43472;48.980;9.646;2024-01-30T14:13:01;18.45;;;9.82;;
28724;SDS011;43472;48.980;9.646;2024-01-30T14:18:05;36.60;;;19.05;;
28724;SDS011;43472;48.980;9.646;2024-01-30T14:23:09;73.80;;;33.17;;
28724;SDS011;43472;48.980;9.646;2024-01-30T14:28:11;31.15;;;15.32;;
28724;SDS011;43472;48.980;9.646;2024-01-30T14:33:14;23.38;;;12.00;;
28724;SDS011;43472;48.980;9.646;2024-01-30T14:38:16;26.48;;;11.05;;
28724;SDS011;43472;48.980;9.646;2024-01-30T14:43:20;37.20;;;17.10;;
28724;SDS011;43472;48.980;9.646;2024-01-30T14:48:22;33.22;;;15.18;;
28724;SDS011;43472;48.980;9.646;2024-01-30T14:53:24;21.60;;;9.80;;
28724;SDS011;43472;48.980;9.646;2024-01-30T14:58:26;25.02;;;10.90;;
28724;SDS011;43472;48.980;9.646;2024-01-30T15:03:29;27.75;;;12.40;;
28724;SDS011;43472;48.980;9.646;2024-01-30T15:08:30;33.35;;;11.38;;
28724;SDS011;43472;48.980;9.646;2024-01-30T15:13:34;20.13;;;9.95;;
28724;SDS011;43472;48.980;9.646;2024-01-30T15:18:36;24.85;;;11.25;;
28724;SDS011;43472;48.980;9.646;2024-01-30T15:23:38;37.60;;;16.25;;
28724;SDS011;43472;48.980;9.646;2024-01-30T15:28:40;32.38;;;12.15;;
28724;SDS011;43472;48.980;9.646;2024-01-30T15:33:44;25.80;;;11.82;;
28724;SDS011;43472;48.980;9.646;2024-01-30T15:38:46;25.58;;;10.13;;
28724;SDS011;43472;48.980;9.646;2024-01-30T15:43:48;21.48;;;9.52;;
28724;SDS011;43472;48.980;9.646;2024-01-30T15:48:50;26.70;;;9.25;;
28724;SDS011;43472;48.980;9.646;2024-01-30T15:53:52;16.98;;;8.50;;
28724;SDS011;43472;48.980;9.646;2024-01-30T15:58:53;18.83;;;8.20;;
28724;SDS011;43472;48.980;9.646;2024-01-30T16:03:55;15.15;;;8.15;;
28724;SDS011;43472;48.980;9.646;2024-01-30T16:08:58;19.52;;;7.47;;
28724;SDS011;43472;48.980;9.646;2024-01-30T16:13:59;14.00;;;6.65;;
28724;SDS011;43472;48.980;9.646;2024-01-30T16:19:02;15.63;;;8.23;;
28724;SDS011;43472;48.980;9.646;2024-01-30T16:24:05;13.85;;;8.40;;
28724;SDS011;43472;48.980;9.646;2024-01-30T16:29:07;16.77;;;8.07;;
28724;SDS011;43472;48.980;9.646;2024-01-30T16:34:10;12.40;;;6.22;;
28724;SDS011;43472;48.980;9.646;2024-01-30T16:39:12;13.48;;;6.03;;
28724;SDS011;43472;48.980;9.646;2024-01-30T16:44:15;15.52;;;7.18;;
28724;SDS011;43472;48.980;9.646;2024-01-30T16:49:17;13.48;;;6.63;;
28724;SDS011;43472;48.980;9.646;2024-01-30T16:54:19;12.18;;;6.45;;
28724;SDS011;43472;48.980;9.646;2024-01-30T16:59:21;16.25;;;7.15;;
28724;SDS011;43472;48.980;9.646;2024-01-30T17:04:23;11.40;;;6.68;;
28724;SDS011;43472;48.980;9.646;2024-01-30T17:09:25;15.15;;;7.72;;
28724;SDS011;43472;48.980;9.646;2024-01-30T17:14:27;9.85;;;5.30;;
28724;SDS011;43472;48.980;9.646;2024-01-30T17:19:30;14.45;;;7.35;;
28724;SDS011;43472;48.980;9.646;2024-01-30T17:24:32;19.38;;;9.18;;
28724;SDS011;43472;48.980;9.646;2024-01-30T17:29:49;12.15;;;5.95;;
28724;SDS011;43472;48.980;9.646;2024-01-30T17:34:52;10.05;;;5.13;;
28724;SDS011;43472;48.980;9.646;2024-01-30T17:39:54;15.27;;;8.93;;
28724;SDS011;43472;48.980;9.646;2024-01-30T17:44:57;21.65;;;11.65;;
28724;SDS011;43472;48.980;9.646;2024-01-30T17:49:59;42.00;;;18.05;;
28724;SDS011;43472;48.980;9.646;2024-01-30T17:55:02;23.83;;;13.15;;
28724;SDS011;43472;48.980;9.646;2024-01-30T18:00:05;22.65;;;12.07;;
28724;SDS011;43472;48.980;9.646;2024-01-30T18:05:10;18.10;;;7.97;;
28724;SDS011;43472;48.980;9.646;2024-01-30T18:10:13;13.32;;;6.68;;
28724;SDS011;43472;48.980;9.646;2024-01-30T18:15:21;8.23;;;5.25;;
28724;SDS011;43472;48.980;9.646;2024-01-30T18:20:23;14.77;;;7.05;;
28724;SDS011;43472;48.980;9.646;2024-01-30T18:25:25;21.92;;;8.55;;
28724;SDS011;43472;48.980;9.646;2024-01-30T18:30:27;22.95;;;9.93;;
28724;SDS011;43472;48.980;9.646;2024-01-30T18:35:30;28.08;;;12.30;;
28724;SDS011;43472;48.980;9.646;2024-01-30T18:40:33;17.77;;;8.65;;
28724;SDS011;43472;48.980;9.646;2024-01-30T18:45:35;33.70;;;16.38;;
28724;SDS011;43472;48.980;9.646;2024-01-30T18:50:39;33.33;;;16.33;;
28724;SDS011;43472;48.980;9.646;2024-01-30T18:55:41;40.70;;;18.65;;
28724;SDS011;43472;48.980;9.646;2024-01-30T19:00:43;28.52;;;12.25;;
28724;SDS011;43472;48.980;9.646;2024-01-30T19:05:49;35.45;;;19.85;;
28724;SDS011;43472;48.980;9.646;2024-01-30T19:10:51;32.80;;;16.23;;
28724;SDS011;43472;48.980;9.646;2024-01-30T19:15:55;20.15;;;10.75;;
28724;SDS011;43472;48.980;9.646;2024-01-30T19:20:58;21.73;;;10.57;;
28724;SDS011;43472;48.980;9.646;2024-01-30T19:26:01;37.28;;;18.88;;
28724;SDS011;43472;48.980;9.646;2024-01-30T19:31:04;39.33;;;20.45;;
28724;SDS011;43472;48.980;9.646;2024-01-30T19:36:07;35.53;;;19.38;;
28724;SDS011;43472;48.980;9.646;2024-01-30T19:41:13;23.77;;;13.43;;
28724;SDS011;43472;48.980;9.646;2024-01-30T19:46:16;20.23;;;11.70;;
28724;SDS011;43472;48.980;9.646;2024-01-30T19:51:18;25.13;;;11.25;;
28724;SDS011;43472;48.980;9.646;2024-01-30T19:56:20;36.63;;;19.35;;
28724;SDS011;43472;48.980;9.646;2024-01-30T20:01:23;40.05;;;18.40;;
28724;SDS011;43472;48.980;9.646;2024-01-30T20:06:27;20.73;;;10.57;;
28724;SDS011;43472;48.980;9.646;2024-01-30T20:11:29;17.63;;;8.55;;
28724;SDS011;43472;48.980;9.646;2024-01-30T20:16:35;23.17;;;9.40;;
28724;SDS011;43472;48.980;9.646;2024-01-30T20:21:41;22.63;;;12.75;;
28724;SDS011;43472;48.980;9.646;2024-01-30T20:26:49;23.80;;;13.27;;
28724;SDS011;43472;48.980;9.646;2024-01-30T20:31:53;18.70;;;10.45;;
28724;SDS011;43472;48.980;9.646;2024-01-30T20:36:55;18.02;;;9.65;;
28724;SDS011;43472;48.980;9.646;2024-01-30T20:41:57;22.35;;;9.93;;
28724;SDS011;43472;48.980;9.646;2024-01-30T20:46:59;68.82;;;32.75;;
28724;SDS011;43472;48.980;9.646;2024-01-30T20:52:01;38.55;;;19.70;;
28724;SDS011;43472;48.980;9.646;2024-01-30T20:57:03;38.03;;;20.55;;
28724;SDS011;43472;48.980;9.646;2024-01-30T21:02:05;22.92;;;13.07;;
28724;SDS011;43472;48.980;9.646;2024-01-30T21:07:08;23.05;;;13.98;;
28724;SDS011;43472;48.980;9.646;2024-01-30T21:12:09;21.75;;;11.98;;
28724;SDS011;43472;48.980;9.646;2024-01-30T21:17:12;16.52;;;7.25;;
28724;SDS011;43472;48.980;9.646;2024-01-30T21:22:14;15.80;;;6.60;;
28724;SDS011;43472;48.980;9.646;2024-01-30T21:27:16;11.63;;;6.13;;
28724;SDS011;43472;48.980;9.646;2024-01-30T21:32:18;18.80;;;10.30;;
28724;SDS011;43472;48.980;9.646;2024-01-30T21:37:20;29.27;;;16.52;;
28724;SDS011;43472;48.980;9.646;2024-01-30T21:42:22;25.83;;;15.10;;
28724;SDS011;43472;48.980;9.646;2024-01-30T21:47:24;18.75;;;10.32;;
28724;SDS011;43472;48.980;9.646;2024-01-30T21:52:26;17.48;;;9.65;;
28724;SDS011;43472;48.980;9.646;2024-01-30T21:57:30;23.65;;;12.50;;
28724;SDS011;43472;48.980;9.646;2024-01-30T22:02:32;24.20;;;12.20;;
28724;SDS011;43472;48.980;9.646;2024-01-30T22:07:35;19.85;;;12.18;;
28724;SDS011;43472;48.980;9.646;2024-01-30T22:12:38;25.67;;;13.73;;
28724;SDS011;43472;48.980;9.646;2024-01-30T22:17:41;23.95;;;14.00;;
28724;SDS011;43472;48.980;9.646;2024-01-30T22:22:43;26.88;;;14.35;;
28724;SDS011;43472;48.980;9.646;2024-01-30T22:27:45;30.58;;;17.00;;
28724;SDS011;43472;48.980;9.646;2024-01-30T22:32:48;23.05;;;13.32;;
28724;SDS011;43472;48.980;9.646;2024-01-30T22:37:49;20.48;;;11.00;;
28724;SDS011;43472;48.980;9.646;2024-01-30T22:42:53;19.40;;;11.82;;
28724;SDS011;43472;48.980;9.646;2024-01-30T22:47:56;27.45;;;14.38;;
28724;SDS011;43472;48.980;9.646;2024-01-30T22:52:58;21.55;;;10.93;;
28724;SDS011;43472;48.980;9.646;2024-01-30T22:58:00;18.70;;;10.00;;
28724;SDS011;43472;48.980;9.646;2024-01-30T23:03:02;19.88;;;11.48;;
28724;SDS011;43472;48.980;9.646;2024-01-30T23:08:05;25.90;;;13.15;;
28724;SDS011;43472;48.980;9.646;2024-01-30T23:13:08;25.80;;;12.93;;
28724;SDS011;43472;48.980;9.646;2024-01-30T23:18:10;23.42;;;11.60;;
28724;SDS011;43472;48.980;9.646;2024-01-30T23:23:12;19.27;;;9.98;;
28724;SDS011;43472;48.980;9.646;2024-01-30T23:28:14;19.95;;;10.02;;
28724;SDS011;43472;48.980;9.646;2024-01-30T23:33:19;19.58;;;10.50;;
28724;SDS011;43472;48.980;9.646;2024-01-30T23:38:20;15.13;;;9.18;;
28724;SDS011;43472;48.980;9.646;2024-01-30T23:43:22;17.10;;;9.77;;
28724;SDS011;43472;48.980;9.646;2024-01-30T23:48:30;21.17;;;9.63;;
28724;SDS011;43472;48.980;9.646;2024-01-30T23:53:33;17.15;;;8.85;;
28724;SDS011;43472;48.980;9.646;2024-01-30T23:58:35;16.95;;;9.65;;
